createdAt,value
2023-03-30T00:01:02.919Z,10.90
2023-03-30T00:03:30.902Z,10.80
2023-03-30T00:06:05.359Z,10.80
2023-03-30T00:08:33.513Z,10.70
2023-03-30T00:11:10.025Z,10.70
2023-03-30T00:13:38.461Z,10.60
2023-03-30T00:16:08.866Z,10.60
2023-03-30T00:18:37.089Z,10.50
2023-03-30T00:21:05.422Z,10.50
2023-03-30T00:23:33.464Z,10.40
2023-03-30T00:26:01.447Z,10.40
2023-03-30T00:28:31.189Z,10.40
2023-03-30T00:30:59.432Z,10.40
2023-03-30T00:33:41.419Z,10.50
2023-03-30T00:36:13.104Z,10.50
2023-03-30T00:38:40.942Z,10.50
2023-03-30T00:41:09.355Z,10.60
2023-03-30T00:44:18.569Z,10.60
2023-03-30T00:46:46.617Z,10.60
2023-03-30T00:49:14.595Z,10.70
2023-03-30T00:51:43.143Z,10.70
2023-03-30T00:54:16.704Z,10.70
2023-03-30T00:56:44.889Z,10.70
2023-03-30T00:59:13.248Z,10.70
2023-03-30T01:01:42.009Z,10.70
2023-03-30T01:04:13.284Z,10.70
2023-03-30T01:06:43.611Z,10.70
2023-03-30T01:09:12.096Z,10.70
2023-03-30T01:11:40.436Z,10.70
2023-03-30T01:14:11.290Z,10.70
2023-03-30T01:17:26.496Z,10.60
2023-03-30T01:20:18.472Z,10.60
2023-03-30T01:23:04.737Z,10.60
2023-03-30T01:25:51.464Z,10.60
2023-03-30T01:28:46.188Z,10.60
2023-03-30T01:31:25.874Z,10.60
2023-03-30T01:34:03.149Z,10.60
2023-03-30T01:36:45.824Z,10.60
2023-03-30T01:39:54.114Z,10.60
2023-03-30T01:42:39.323Z,10.50
2023-03-30T01:45:16.901Z,10.50
2023-03-30T01:48:05.782Z,10.50
2023-03-30T01:51:08.937Z,10.50
2023-03-30T01:53:58.083Z,10.50
2023-03-30T01:56:32.225Z,10.40
2023-03-30T01:59:27.105Z,10.40
2023-03-30T02:02:02.607Z,10.30
2023-03-30T02:04:36.198Z,10.30
2023-03-30T02:07:19.316Z,11.40
2023-03-30T02:09:51.981Z,10.30
2023-03-30T02:12:20.773Z,10.30
2023-03-30T02:14:49.707Z,10.30
2023-03-30T02:17:25.033Z,10.30
2023-03-30T02:19:54.698Z,10.30
2023-03-30T02:22:23.766Z,10.20
2023-03-30T02:24:56.201Z,10.30
2023-03-30T02:27:25.160Z,10.20
2023-03-30T02:29:53.248Z,10.10
2023-03-30T02:32:26.625Z,10.10
2023-03-30T02:35:16.276Z,10.10
2023-03-30T02:38:05.407Z,10.00
2023-03-30T02:40:52.654Z,10.00
2023-03-30T02:43:26.214Z,9.90
2023-03-30T02:46:43.544Z,9.90
2023-03-30T02:49:34.227Z,9.90
2023-03-30T02:52:47.193Z,9.80
2023-03-30T02:55:14.889Z,9.80
2023-03-30T02:58:28.068Z,9.70
2023-03-30T03:01:35.650Z,9.70
2023-03-30T03:04:12.676Z,9.60
2023-03-30T03:06:53.526Z,9.60
2023-03-30T03:09:21.740Z,9.50
2023-03-30T03:11:49.349Z,9.50
2023-03-30T03:14:17.335Z,9.50
2023-03-30T03:16:46.558Z,9.50
2023-03-30T03:19:16.665Z,9.50
2023-03-30T03:21:47.004Z,9.50
2023-03-30T03:24:17.690Z,9.50
2023-03-30T03:27:03.890Z,9.50
2023-03-30T03:29:39.624Z,9.50
2023-03-30T03:32:08.047Z,9.50
2023-03-30T03:34:46.069Z,9.50
2023-03-30T03:37:14.608Z,9.40
2023-03-30T03:39:43.678Z,9.40
2023-03-30T03:42:13.225Z,9.40
2023-03-30T03:44:50.299Z,9.40
2023-03-30T03:47:18.280Z,9.40
2023-03-30T03:49:47.135Z,9.40
2023-03-30T03:52:14.736Z,9.40
2023-03-30T03:54:42.341Z,9.40
2023-03-30T03:57:10.381Z,9.40
2023-03-30T03:59:38.265Z,9.40
2023-03-30T04:02:06.711Z,9.40
2023-03-30T04:04:34.441Z,9.40
2023-03-30T04:07:02.115Z,9.30
2023-03-30T04:09:29.649Z,9.30
2023-03-30T04:12:16.106Z,9.40
2023-03-30T04:15:09.992Z,9.40
2023-03-30T04:17:50.164Z,9.40
2023-03-30T04:20:27.026Z,9.40
2023-03-30T04:23:10.609Z,9.40
2023-03-30T04:25:46.969Z,9.50
2023-03-30T04:28:37.374Z,9.40
2023-03-30T04:31:34.937Z,9.50
2023-03-30T04:34:22.079Z,9.50
2023-03-30T04:37:07.386Z,9.50
2023-03-30T04:40:08.003Z,9.50
2023-03-30T04:42:50.163Z,9.50
2023-03-30T04:45:40.631Z,9.50
2023-03-30T04:48:26.715Z,9.40
2023-03-30T04:51:16.204Z,9.40
2023-03-30T04:53:43.777Z,9.50
2023-03-30T04:56:29.816Z,9.50
2023-03-30T04:59:17.375Z,9.50
2023-03-30T05:02:04.369Z,9.40
2023-03-30T05:04:58.006Z,9.50
2023-03-30T05:07:44.650Z,9.50
2023-03-30T05:10:30.908Z,9.40
2023-03-30T05:13:25.335Z,9.50
2023-03-30T05:16:13.144Z,9.50
2023-03-30T05:18:59.486Z,9.50
2023-03-30T05:21:45.589Z,9.50
2023-03-30T05:24:34.491Z,9.50
2023-03-30T05:27:17.153Z,9.50
2023-03-30T05:30:05.777Z,9.50
2023-03-30T05:32:52.188Z,9.60
2023-03-30T05:35:49.063Z,9.60
2023-03-30T05:38:36.122Z,9.60
2023-03-30T05:41:22.719Z,9.60
2023-03-30T05:44:04.923Z,9.50
2023-03-30T05:46:35.305Z,9.50
2023-03-30T05:49:22.526Z,9.40
2023-03-30T05:52:01.756Z,9.30
2023-03-30T05:54:53.934Z,9.30
2023-03-30T05:57:45.715Z,9.20
2023-03-30T06:00:36.830Z,9.20
2023-03-30T06:03:15.898Z,9.10
2023-03-30T06:05:44.156Z,9.10
2023-03-30T06:08:13.656Z,9.10
2023-03-30T06:10:42.800Z,9.10
2023-03-30T06:13:12.756Z,9.10
2023-03-30T06:15:50.302Z,9.10
2023-03-30T06:18:23.616Z,9.10
2023-03-30T06:21:02.660Z,9.10
2023-03-30T06:23:31.042Z,9.10
2023-03-30T06:26:02.982Z,9.10
2023-03-30T06:28:34.736Z,9.10
2023-03-30T06:31:09.338Z,9.10
2023-03-30T06:33:39.684Z,9.20
2023-03-30T06:36:12.847Z,9.20
2023-03-30T06:38:44.005Z,9.20
2023-03-30T06:41:13.379Z,9.30
2023-03-30T06:43:45.147Z,9.40
2023-03-30T06:46:17.515Z,9.40
2023-03-30T06:48:48.512Z,9.50
2023-03-30T06:51:35.510Z,9.50
2023-03-30T06:54:05.634Z,9.60
2023-03-30T06:56:34.235Z,9.70
2023-03-30T06:59:17.542Z,9.80
2023-03-30T07:02:14.941Z,9.80
2023-03-30T07:05:07.392Z,9.90
2023-03-30T07:07:56.078Z,9.90
2023-03-30T07:10:25.901Z,10.00
2023-03-30T07:12:54.602Z,10.00
2023-03-30T07:15:24.487Z,10.10
2023-03-30T07:17:53.559Z,10.20
2023-03-30T07:20:24.474Z,10.20
2023-03-30T07:23:05.641Z,10.20
2023-03-30T07:25:34.400Z,10.30
2023-03-30T07:28:10.664Z,10.40
2023-03-30T07:30:39.186Z,10.40
2023-03-30T07:33:09.174Z,10.50
2023-03-30T07:35:45.065Z,10.50
2023-03-30T07:38:14.702Z,10.60
2023-03-30T07:40:47.604Z,10.60
2023-03-30T07:43:17.139Z,10.60
2023-03-30T07:45:46.098Z,10.70
2023-03-30T07:48:20.091Z,10.80
2023-03-30T07:50:48.760Z,10.80
2023-03-30T07:53:17.145Z,10.80
2023-03-30T07:55:47.614Z,10.70
2023-03-30T07:58:23.438Z,10.70
2023-03-30T08:00:51.072Z,10.70
2023-03-30T08:03:48.432Z,10.70
2023-03-30T08:06:18.305Z,10.80
2023-03-30T08:08:49.106Z,10.90
2023-03-30T08:11:16.914Z,11.00
2023-03-30T08:13:45.571Z,11.10
2023-03-30T08:16:15.388Z,11.10
2023-03-30T08:18:47.402Z,11.30
2023-03-30T08:21:15.057Z,11.30
2023-03-30T08:23:45.524Z,11.30
2023-03-30T08:26:13.372Z,11.30
2023-03-30T08:28:40.975Z,11.20
2023-03-30T08:31:10.862Z,11.20
2023-03-30T08:33:39.761Z,11.20
2023-03-30T08:36:07.708Z,11.20
2023-03-30T08:38:35.882Z,11.20
2023-03-30T08:41:20.100Z,11.10
2023-03-30T08:43:57.106Z,11.10
2023-03-30T08:46:25.887Z,11.00
2023-03-30T08:48:58.056Z,10.90
2023-03-30T08:51:29.501Z,10.80
2023-03-30T08:54:04.608Z,10.80
2023-03-30T08:56:43.125Z,10.80
2023-03-30T08:59:33.027Z,10.70
2023-03-30T09:02:13.156Z,10.80
2023-03-30T09:05:08.279Z,10.80
2023-03-30T09:07:43.984Z,10.90
2023-03-30T09:10:14.301Z,10.90
2023-03-30T09:12:51.191Z,10.90
2023-03-30T09:15:29.721Z,10.90
2023-03-30T09:18:32.438Z,11.30
2023-03-30T09:21:03.400Z,11.30
2023-03-30T09:23:33.285Z,11.60
2023-03-30T09:26:20.330Z,11.90
2023-03-30T09:29:03.968Z,12.60
2023-03-30T09:31:45.028Z,13.00
2023-03-30T09:34:34.266Z,13.30
2023-03-30T09:37:13.485Z,13.40
2023-03-30T09:39:41.490Z,13.30
2023-03-30T09:42:24.651Z,13.10
2023-03-30T09:45:01.817Z,12.90
2023-03-30T09:47:36.590Z,12.50
2023-03-30T09:50:25.171Z,12.50
2023-03-30T09:52:59.546Z,12.80
2023-03-30T09:55:33.400Z,13.20
2023-03-30T09:58:19.612Z,13.80
2023-03-30T10:01:03.262Z,13.90
2023-03-30T10:03:31.362Z,14.10
2023-03-30T10:06:20.057Z,14.20
2023-03-30T10:08:56.694Z,14.00
2023-03-30T10:11:42.727Z,13.90
2023-03-30T10:14:34.151Z,13.80
2023-03-30T10:19:36.300Z,14.20
2023-03-30T10:22:18.885Z,14.10
2023-03-30T10:24:53.219Z,13.80
2023-03-30T10:27:30.345Z,13.20
2023-03-30T10:30:09.024Z,13.20
2023-03-30T10:32:37.354Z,13.10
2023-03-30T10:35:10.284Z,13.20
2023-03-30T10:37:41.277Z,13.10
2023-03-30T10:40:18.377Z,13.00
2023-03-30T10:42:49.378Z,13.00
2023-03-30T10:45:22.129Z,12.90
2023-03-30T10:47:56.916Z,13.00
2023-03-30T10:50:41.192Z,13.20
2023-03-30T10:53:26.950Z,14.30
2023-03-30T10:56:18.656Z,14.60
2023-03-30T10:59:13.361Z,15.10
2023-03-30T11:01:56.454Z,15.30
2023-03-30T11:04:38.773Z,15.20
2023-03-30T11:07:22.209Z,14.80
2023-03-30T11:09:55.379Z,14.80
2023-03-30T11:12:26.416Z,14.70
2023-03-30T11:14:58.166Z,14.60
2023-03-30T11:17:37.763Z,14.80
2023-03-30T11:20:32.645Z,14.90
2023-03-30T11:23:06.305Z,15.00
2023-03-30T11:25:45.514Z,14.90
2023-03-30T11:28:26.032Z,14.50
2023-03-30T11:30:59.896Z,14.30
2023-03-30T11:33:33.439Z,14.20
2023-03-30T11:36:07.305Z,14.20
2023-03-30T11:38:44.360Z,14.50
2023-03-30T11:41:35.756Z,14.90
2023-03-30T11:44:03.504Z,15.50
2023-03-30T11:47:04.675Z,15.80
2023-03-30T11:49:50.336Z,16.30
2023-03-30T11:52:50.237Z,16.30
2023-03-30T11:55:39.380Z,16.20
2023-03-30T11:58:20.281Z,17.50
2023-03-30T12:00:59.900Z,18.00
2023-03-30T12:03:36.523Z,19.10
2023-03-30T12:06:29.627Z,19.80
2023-03-30T12:09:27.880Z,20.30
2023-03-30T12:12:18.003Z,20.50
2023-03-30T12:15:01.557Z,20.70
2023-03-30T12:17:47.874Z,20.00
2023-03-30T12:20:40.176Z,19.80
2023-03-30T12:23:35.977Z,19.90
2023-03-30T12:26:27.022Z,20.50
2023-03-30T12:29:26.137Z,20.60
2023-03-30T12:31:59.326Z,19.90
2023-03-30T12:34:31.621Z,18.60
2023-03-30T12:37:14.417Z,17.60
2023-03-30T12:39:53.732Z,16.90
2023-03-30T12:42:34.398Z,16.60
2023-03-30T12:45:37.550Z,16.90
2023-03-30T12:48:22.194Z,17.80
2023-03-30T12:51:00.776Z,17.90
2023-03-30T12:53:46.376Z,18.10
2023-03-30T12:56:39.186Z,18.20
2023-03-30T12:59:47.093Z,18.50
2023-03-30T13:02:33.755Z,19.00
2023-03-30T13:05:01.579Z,19.80
2023-03-30T13:07:32.150Z,19.50
2023-03-30T13:10:05.634Z,19.40
2023-03-30T13:12:38.508Z,19.10
2023-03-30T13:15:31.586Z,18.90
2023-03-30T13:18:02.951Z,18.20
2023-03-30T13:20:32.885Z,18.00
2023-03-30T13:23:01.111Z,17.50
2023-03-30T13:25:45.576Z,17.30
2023-03-30T13:28:38.260Z,18.10
2023-03-30T13:31:36.720Z,18.20
2023-03-30T13:34:19.821Z,19.00
2023-03-30T13:37:04.584Z,19.60
2023-03-30T13:39:49.709Z,19.50
2023-03-30T13:42:35.945Z,19.20
2023-03-30T13:45:06.420Z,19.20
2023-03-30T13:47:58.101Z,19.00
2023-03-30T13:50:28.010Z,19.00
2023-03-30T13:52:59.150Z,19.00
2023-03-30T13:55:43.979Z,19.20
2023-03-30T13:58:32.946Z,19.20
2023-03-30T14:01:13.426Z,19.00
2023-03-30T14:03:49.483Z,18.90
2023-03-30T14:06:22.694Z,19.40
2023-03-30T14:08:58.603Z,20.50
2023-03-30T14:11:56.466Z,21.20
2023-03-30T14:14:38.117Z,21.90
2023-03-30T14:17:23.322Z,20.60
2023-03-30T14:20:15.802Z,20.50
2023-03-30T14:22:47.201Z,19.10
2023-03-30T14:25:22.679Z,18.60
2023-03-30T14:27:50.293Z,17.60
2023-03-30T14:30:21.995Z,17.50
2023-03-30T14:33:05.054Z,17.00
2023-03-30T14:35:33.013Z,16.70
2023-03-30T14:38:16.022Z,16.30
2023-03-30T14:40:45.154Z,16.20
2023-03-30T14:43:24.742Z,16.10
2023-03-30T14:45:54.433Z,15.90
2023-03-30T14:48:32.842Z,16.70
2023-03-30T14:51:02.576Z,17.40
2023-03-30T14:53:31.476Z,18.70
2023-03-30T14:56:01.514Z,19.90
2023-03-30T14:58:32.086Z,21.00
2023-03-30T15:01:03.907Z,21.30
2023-03-30T15:03:34.678Z,21.60
2023-03-30T15:06:05.171Z,21.40
2023-03-30T15:08:37.134Z,20.20
2023-03-30T15:11:12.428Z,19.60
2023-03-30T15:13:51.720Z,18.90
2023-03-30T15:16:27.279Z,18.30
2023-03-30T15:19:06.884Z,17.70
2023-03-30T15:21:38.200Z,17.50
2023-03-30T15:24:08.737Z,17.70
2023-03-30T15:26:42.256Z,18.40
2023-03-30T15:29:10.749Z,19.10
2023-03-30T15:31:38.321Z,19.30
2023-03-30T15:34:14.067Z,19.10
2023-03-30T15:36:41.908Z,18.70
2023-03-30T15:39:23.783Z,18.60
2023-03-30T15:41:57.958Z,19.00
2023-03-30T15:44:25.593Z,19.50
2023-03-30T15:46:56.786Z,19.90
2023-03-30T15:49:33.219Z,20.10
2023-03-30T15:52:02.048Z,20.10
2023-03-30T15:54:48.285Z,19.70
2023-03-30T15:57:25.097Z,18.40
2023-03-30T15:59:56.436Z,18.30
2023-03-30T16:02:44.283Z,17.70
2023-03-30T16:05:23.559Z,17.40
2023-03-30T16:07:51.234Z,17.30
2023-03-30T16:10:26.520Z,17.40
2023-03-30T16:12:55.819Z,17.80
2023-03-30T16:15:27.151Z,18.30
2023-03-30T16:17:55.020Z,19.00
2023-03-30T16:20:26.193Z,19.10
2023-03-30T16:22:54.329Z,19.20
2023-03-30T16:25:34.014Z,19.10
2023-03-30T16:28:06.036Z,18.10
2023-03-30T16:30:36.164Z,17.80
2023-03-30T16:33:04.895Z,17.10
2023-03-30T16:35:32.602Z,16.50
2023-03-30T16:38:00.509Z,15.80
2023-03-30T16:40:32.974Z,15.70
2023-03-30T16:43:00.772Z,15.40
2023-03-30T16:45:29.031Z,15.20
2023-03-30T16:47:57.028Z,14.90
2023-03-30T16:50:43.518Z,14.80
2023-03-30T16:53:12.110Z,14.90
2023-03-30T16:55:40.788Z,15.30
2023-03-30T16:58:11.110Z,15.60
2023-03-30T17:00:51.063Z,15.70
2023-03-30T17:03:19.431Z,15.70
2023-03-30T17:05:51.314Z,15.50
2023-03-30T17:08:27.784Z,15.20
2023-03-30T17:11:01.485Z,15.10
2023-03-30T17:13:29.870Z,14.90
2023-03-30T17:16:01.094Z,14.70
2023-03-30T17:18:29.586Z,14.60
2023-03-30T17:21:01.540Z,14.60
2023-03-30T17:23:34.653Z,14.60
2023-03-30T17:26:02.843Z,14.60
2023-03-30T17:28:33.925Z,14.40
2023-03-30T17:31:04.575Z,14.40
2023-03-30T17:33:34.176Z,14.40
2023-03-30T17:36:05.078Z,14.30
2023-03-30T17:38:32.958Z,14.20
2023-03-30T17:41:00.997Z,14.20
2023-03-30T17:43:28.585Z,14.20
2023-03-30T17:45:56.229Z,14.20
2023-03-30T17:48:25.389Z,14.20
2023-03-30T17:50:53.076Z,14.20
2023-03-30T17:53:21.818Z,14.20
2023-03-30T17:55:52.441Z,14.20
2023-03-30T17:58:35.210Z,14.20
2023-03-30T18:01:06.622Z,14.20
2023-03-30T18:03:38.615Z,14.10
2023-03-30T18:06:07.730Z,13.90
2023-03-30T18:08:36.284Z,13.70
2023-03-30T18:11:05.538Z,13.60
2023-03-30T18:13:34.057Z,13.50
2023-03-30T18:16:03.384Z,13.40
2023-03-30T18:18:33.166Z,13.20
2023-03-30T18:21:04.433Z,13.20
2023-03-30T18:23:37.288Z,13.10
2023-03-30T18:26:12.276Z,13.00
2023-03-30T18:28:44.097Z,13.00
2023-03-30T18:31:12.707Z,13.00
2023-03-30T18:33:40.535Z,13.00
2023-03-30T18:36:13.282Z,13.00
2023-03-30T18:38:42.173Z,13.00
2023-03-30T18:41:12.468Z,12.90
2023-03-30T18:43:40.207Z,13.00
2023-03-30T18:46:13.115Z,12.90
2023-03-30T18:48:41.902Z,12.90
2023-03-30T18:51:12.227Z,12.90
2023-03-30T18:53:40.380Z,12.90
2023-03-30T18:56:12.421Z,12.90
2023-03-30T18:58:42.231Z,12.90
2023-03-30T19:01:13.682Z,12.80
2023-03-30T19:03:43.625Z,12.80
2023-03-30T19:06:22.777Z,12.80
2023-03-30T19:08:50.886Z,12.70
2023-03-30T19:11:24.810Z,12.60
2023-03-30T19:13:53.434Z,12.50
2023-03-30T19:16:22.789Z,12.40
2023-03-30T19:18:51.800Z,12.20
2023-03-30T19:21:20.545Z,12.20
2023-03-30T19:23:50.488Z,12.10
2023-03-30T19:26:19.234Z,12.00
2023-03-30T19:28:48.036Z,11.80
2023-03-30T19:31:17.038Z,11.90
2023-03-30T19:33:45.922Z,11.80
2023-03-30T19:36:15.004Z,11.80
2023-03-30T19:38:44.437Z,11.70
2023-03-30T19:41:12.735Z,11.70
2023-03-30T19:43:41.079Z,11.70
2023-03-30T19:46:09.519Z,11.70
2023-03-30T19:48:38.510Z,11.70
2023-03-30T19:51:06.847Z,11.70
2023-03-30T19:53:35.504Z,11.70
2023-03-30T19:56:03.290Z,11.70
2023-03-30T19:58:31.061Z,11.70
2023-03-30T20:01:04.330Z,11.70
2023-03-30T20:03:32.310Z,11.70
2023-03-30T20:06:00.017Z,11.80
2023-03-30T20:08:27.938Z,11.80
2023-03-30T20:10:56.576Z,11.80
2023-03-30T20:13:26.658Z,11.90
2023-03-30T20:15:55.905Z,11.90
2023-03-30T20:18:23.961Z,11.90
2023-03-30T20:20:51.537Z,12.00
2023-03-30T20:23:19.412Z,12.00
2023-03-30T20:25:49.494Z,12.00
2023-03-30T20:28:17.692Z,12.00
2023-03-30T20:30:45.396Z,12.00
2023-03-30T20:33:13.413Z,11.90
2023-03-30T20:35:41.137Z,11.70
2023-03-30T20:38:09.311Z,11.40
2023-03-30T20:40:37.001Z,11.40
2023-03-30T20:43:10.329Z,11.20
2023-03-30T20:45:48.896Z,11.10
2023-03-30T20:48:27.375Z,10.90
2023-03-30T20:50:57.532Z,10.80
2023-03-30T20:53:26.144Z,10.70
2023-03-30T20:55:54.932Z,10.70
2023-03-30T20:58:24.224Z,10.70
2023-03-30T21:00:53.885Z,13.00
2023-03-30T21:03:26.445Z,10.70
2023-03-30T21:06:07.033Z,10.70
2023-03-30T21:08:36.262Z,10.70
2023-03-30T21:11:05.371Z,10.70
2023-03-30T21:13:34.735Z,10.70
2023-03-30T21:16:07.087Z,10.70
2023-03-30T21:18:36.366Z,10.70
2023-03-30T21:21:06.115Z,10.70
2023-03-30T21:23:35.023Z,10.70
2023-03-30T21:26:06.718Z,10.70
2023-03-30T21:28:36.834Z,10.80
2023-03-30T21:31:10.262Z,10.80
2023-03-30T21:33:38.733Z,10.80
2023-03-30T21:36:07.690Z,10.90
2023-03-30T21:38:36.342Z,10.90
2023-03-30T21:41:11.550Z,10.80
2023-03-30T21:43:42.935Z,10.90
2023-03-30T21:46:13.790Z,10.90
2023-03-30T21:48:44.075Z,10.90
2023-03-30T21:51:17.761Z,10.90
2023-03-30T21:53:48.327Z,10.90
2023-03-30T21:56:16.084Z,10.90
2023-03-30T21:58:44.156Z,10.90
2023-03-30T22:01:12.944Z,10.90
2023-03-30T22:03:42.593Z,10.90
2023-03-30T22:06:13.167Z,10.90
2023-03-30T22:08:41.536Z,10.90
2023-03-30T22:11:13.103Z,10.90
2023-03-30T22:13:41.082Z,10.90
2023-03-30T22:16:14.759Z,10.90
2023-03-30T22:18:43.271Z,10.90
2023-03-30T22:21:17.065Z,10.90
2023-03-30T22:23:45.510Z,10.90
2023-03-30T22:26:13.690Z,10.90
2023-03-30T22:28:41.652Z,10.80
2023-03-30T22:31:11.550Z,10.80
2023-03-30T22:33:39.413Z,10.70
2023-03-30T22:36:17.351Z,10.60
2023-03-30T22:38:46.566Z,10.60
2023-03-30T22:41:14.987Z,10.50
2023-03-30T22:43:42.757Z,10.50
2023-03-30T22:46:11.174Z,10.50
2023-03-30T22:48:41.573Z,10.40
2023-03-30T22:51:09.430Z,10.40
2023-03-30T22:53:38.664Z,10.40
2023-03-30T22:56:07.633Z,10.30
2023-03-30T22:58:36.362Z,10.30
2023-03-30T23:01:10.668Z,10.30
2023-03-30T23:03:38.866Z,10.20
2023-03-30T23:06:06.735Z,10.20
2023-03-30T23:08:34.902Z,10.10
2023-03-30T23:11:04.985Z,10.20
2023-03-30T23:13:38.043Z,10.10
2023-03-30T23:16:06.677Z,10.10
2023-03-30T23:18:35.087Z,10.10
2023-03-30T23:21:06.945Z,10.10
2023-03-30T23:23:38.373Z,10.10
2023-03-30T23:26:10.848Z,10.10
2023-03-30T23:28:40.392Z,10.00
2023-03-30T23:31:08.901Z,10.00
2023-03-30T23:33:36.620Z,10.00
2023-03-30T23:36:06.505Z,10.00
2023-03-30T23:38:34.374Z,10.00
2023-03-30T23:41:02.175Z,10.00
2023-03-30T23:43:30.541Z,10.00
2023-03-30T23:45:58.281Z,10.00
2023-03-30T23:48:25.883Z,9.90
2023-03-30T23:50:53.512Z,9.90
2023-03-30T23:53:21.145Z,9.90
2023-03-30T23:55:51.244Z,9.90
2023-03-30T23:58:19.237Z,9.90
